sensor_id;sensor_type;location;lat;lon;timestamp;P1;durP1;ratioP1;P2;durP2;ratioP2
38581;SDS011;24349;53.720;10.014;2022-10-17T00:00:30;7.10;;;3.05;;
38581;SDS011;24349;53.720;10.014;2022-10-17T00:03:28;9.50;;;3.60;;
38581;SDS011;24349;53.720;10.014;2022-10-17T00:06:14;6.25;;;2.80;;
38581;SDS011;24349;53.720;10.014;2022-10-17T00:09:02;8.68;;;3.45;;
38581;SDS011;24349;53.720;10.014;2022-10-17T00:11:33;7.20;;;3.33;;
38581;SDS011;24349;53.720;10.014;2022-10-17T00:14:02;9.45;;;3.25;;
38581;SDS011;24349;53.720;10.014;2022-10-17T00:16:33;9.23;;;3.75;;
38581;SDS011;24349;53.720;10.014;2022-10-17T00:19:03;10.70;;;3.63;;
38581;SDS011;24349;53.720;10.014;2022-10-17T00:21:40;8.52;;;3.35;;
38581;SDS011;24349;53.720;10.014;2022-10-17T00:24:36;8.13;;;3.03;;
38581;SDS011;24349;53.720;10.014;2022-10-17T00:30:14;6.18;;;2.75;;
38581;SDS011;24349;53.720;10.014;2022-10-17T00:33:45;9.07;;;3.80;;
38581;SDS011;24349;53.720;10.014;2022-10-17T00:36:37;10.35;;;3.88;;
38581;SDS011;24349;53.720;10.014;2022-10-17T01:49:03;7.80;;;2.85;;
38581;SDS011;24349;53.720;10.014;2022-10-17T01:52:46;6.32;;;2.65;;
38581;SDS011;24349;53.720;10.014;2022-10-17T02:03:42;12.05;;;3.20;;
38581;SDS011;24349;53.720;10.014;2022-10-17T02:22:58;7.72;;;3.13;;
38581;SDS011;24349;53.720;10.014;2022-10-17T02:26:09;8.38;;;3.67;;
38581;SDS011;24349;53.720;10.014;2022-10-17T02:31:57;8.98;;;3.30;;
38581;SDS011;24349;53.720;10.014;2022-10-17T02:35:33;11.25;;;3.67;;
38581;SDS011;24349;53.720;10.014;2022-10-17T02:55:31;6.93;;;3.35;;
38581;SDS011;24349;53.720;10.014;2022-10-17T03:01:44;9.57;;;4.53;;
38581;SDS011;24349;53.720;10.014;2022-10-17T03:04:30;5.65;;;3.55;;
38581;SDS011;24349;53.720;10.014;2022-10-17T03:06:59;7.43;;;3.35;;
38581;SDS011;24349;53.720;10.014;2022-10-17T03:20:02;7.25;;;3.47;;
38581;SDS011;24349;53.720;10.014;2022-10-17T03:23:17;6.85;;;3.08;;
38581;SDS011;24349;53.720;10.014;2022-10-17T03:26:40;9.65;;;3.33;;
38581;SDS011;24349;53.720;10.014;2022-10-17T03:33:06;5.50;;;3.03;;
38581;SDS011;24349;53.720;10.014;2022-10-17T03:42:07;5.05;;;2.75;;
38581;SDS011;24349;53.720;10.014;2022-10-17T03:45:00;6.78;;;3.25;;
38581;SDS011;24349;53.720;10.014;2022-10-17T03:47:37;7.28;;;3.03;;
38581;SDS011;24349;53.720;10.014;2022-10-17T03:50:11;6.75;;;2.60;;
38581;SDS011;24349;53.720;10.014;2022-10-17T03:52:47;6.35;;;2.90;;
38581;SDS011;24349;53.720;10.014;2022-10-17T03:55:18;7.07;;;2.97;;
38581;SDS011;24349;53.720;10.014;2022-10-17T03:57:57;5.90;;;2.60;;
38581;SDS011;24349;53.720;10.014;2022-10-17T04:00:44;5.50;;;2.72;;
38581;SDS011;24349;53.720;10.014;2022-10-17T04:03:19;4.80;;;2.53;;
38581;SDS011;24349;53.720;10.014;2022-10-17T09:45:28;5.75;;;3.00;;
38581;SDS011;24349;53.720;10.014;2022-10-17T09:50:34;6.93;;;3.28;;
38581;SDS011;24349;53.720;10.014;2022-10-17T09:53:11;5.63;;;2.67;;
38581;SDS011;24349;53.720;10.014;2022-10-17T09:55:57;7.90;;;3.00;;
38581;SDS011;24349;53.720;10.014;2022-10-17T09:59:08;6.68;;;3.10;;
38581;SDS011;24349;53.720;10.014;2022-10-17T10:03:46;6.15;;;3.10;;
38581;SDS011;24349;53.720;10.014;2022-10-17T10:06:17;7.63;;;3.13;;
38581;SDS011;24349;53.720;10.014;2022-10-17T10:08:51;9.98;;;3.83;;
38581;SDS011;24349;53.720;10.014;2022-10-17T10:11:22;7.28;;;2.88;;
38581;SDS011;24349;53.720;10.014;2022-10-17T10:13:50;10.00;;;2.93;;
38581;SDS011;24349;53.720;10.014;2022-10-17T10:18:55;9.02;;;3.63;;
38581;SDS011;24349;53.720;10.014;2022-10-17T10:21:22;6.95;;;3.20;;
38581;SDS011;24349;53.720;10.014;2022-10-17T10:24:02;6.55;;;3.05;;
38581;SDS011;24349;53.720;10.014;2022-10-17T10:26:47;7.88;;;3.20;;
38581;SDS011;24349;53.720;10.014;2022-10-17T10:34:58;6.28;;;3.33;;
38581;SDS011;24349;53.720;10.014;2022-10-17T10:37:41;6.45;;;3.33;;
38581;SDS011;24349;53.720;10.014;2022-10-17T10:42:44;8.52;;;3.38;;
38581;SDS011;24349;53.720;10.014;2022-10-17T10:50:51;7.13;;;3.30;;
38581;SDS011;24349;53.720;10.014;2022-10-17T10:53:24;6.25;;;3.70;;
38581;SDS011;24349;53.720;10.014;2022-10-17T11:06:58;7.00;;;3.78;;
38581;SDS011;24349;53.720;10.014;2022-10-17T11:12:38;5.13;;;3.22;;
38581;SDS011;24349;53.720;10.014;2022-10-17T11:17:42;12.23;;;3.80;;
38581;SDS011;24349;53.720;10.014;2022-10-17T11:20:25;7.78;;;3.65;;
38581;SDS011;24349;53.720;10.014;2022-10-17T11:22:53;8.15;;;3.78;;
38581;SDS011;24349;53.720;10.014;2022-10-17T11:25:35;9.60;;;3.40;;
38581;SDS011;24349;53.720;10.014;2022-10-17T11:28:03;10.38;;;3.83;;
38581;SDS011;24349;53.720;10.014;2022-10-17T11:30:44;7.65;;;3.80;;
38581;SDS011;24349;53.720;10.014;2022-10-17T11:33:23;8.52;;;3.50;;
38581;SDS011;24349;53.720;10.014;2022-10-17T11:35:53;7.47;;;3.55;;
38581;SDS011;24349;53.720;10.014;2022-10-17T11:41:09;6.63;;;3.80;;
38581;SDS011;24349;53.720;10.014;2022-10-17T11:43:53;11.80;;;3.83;;
38581;SDS011;24349;53.720;10.014;2022-10-17T11:46:24;7.68;;;3.60;;
38581;SDS011;24349;53.720;10.014;2022-10-17T11:51:23;6.38;;;3.33;;
38581;SDS011;24349;53.720;10.014;2022-10-17T11:53:56;8.77;;;3.75;;
38581;SDS011;24349;53.720;10.014;2022-10-17T12:01:45;10.63;;;4.30;;
38581;SDS011;24349;53.720;10.014;2022-10-17T12:07:04;6.23;;;3.70;;
38581;SDS011;24349;53.720;10.014;2022-10-17T12:10:21;6.75;;;3.50;;
38581;SDS011;24349;53.720;10.014;2022-10-17T12:12:38;6.25;;;3.70;;
38581;SDS011;24349;53.720;10.014;2022-10-17T12:17:58;7.53;;;4.00;;
38581;SDS011;24349;53.720;10.014;2022-10-17T12:20:28;7.97;;;4.00;;
38581;SDS011;24349;53.720;10.014;2022-10-17T12:23:13;10.40;;;5.30;;
38581;SDS011;24349;53.720;10.014;2022-10-17T12:25:49;10.65;;;6.03;;
38581;SDS011;24349;53.720;10.014;2022-10-17T12:28:24;12.38;;;6.40;;
38581;SDS011;24349;53.720;10.014;2022-10-17T12:31:01;9.60;;;6.13;;
38581;SDS011;24349;53.720;10.014;2022-10-17T12:33:53;9.30;;;6.38;;
38581;SDS011;24349;53.720;10.014;2022-10-17T12:38:50;10.48;;;7.28;;
38581;SDS011;24349;53.720;10.014;2022-10-17T12:49:38;9.88;;;7.18;;
38581;SDS011;24349;53.720;10.014;2022-10-17T12:55:16;10.00;;;7.40;;
38581;SDS011;24349;53.720;10.014;2022-10-17T12:57:49;12.05;;;7.40;;
38581;SDS011;24349;53.720;10.014;2022-10-17T13:02:54;13.10;;;7.75;;
38581;SDS011;24349;53.720;10.014;2022-10-17T13:05:28;14.07;;;8.60;;
38581;SDS011;24349;53.720;10.014;2022-10-17T13:08:00;12.48;;;9.57;;
38581;SDS011;24349;53.720;10.014;2022-10-17T13:10:29;12.27;;;8.30;;
38581;SDS011;24349;53.720;10.014;2022-10-17T13:15:58;16.80;;;9.77;;
38581;SDS011;24349;53.720;10.014;2022-10-17T13:18:28;16.80;;;9.88;;
38581;SDS011;24349;53.720;10.014;2022-10-17T13:21:27;13.07;;;9.82;;
38581;SDS011;24349;53.720;10.014;2022-10-17T13:24:29;18.85;;;11.27;;
38581;SDS011;24349;53.720;10.014;2022-10-17T13:27:04;14.48;;;10.35;;
38581;SDS011;24349;53.720;10.014;2022-10-17T13:29:54;14.88;;;10.15;;
38581;SDS011;24349;53.720;10.014;2022-10-17T13:32:24;13.82;;;9.70;;
38581;SDS011;24349;53.720;10.014;2022-10-17T13:35:15;17.27;;;12.45;;
38581;SDS011;24349;53.720;10.014;2022-10-17T13:38:04;17.08;;;12.27;;
38581;SDS011;24349;53.720;10.014;2022-10-17T13:40:39;14.88;;;10.43;;
